ES-0194 weather

Aeródrome de Arcones
Arcones, Segovia, Spain

Public forecast

Using degrees Celsius for public forecast. Weather courtesy of forecast.io.

Closest aviation weather report (METAR) to Aeródrome de Arcones

Closest report is Torrejón Airport, 39.3 nm (72.8 km) SSE. Retrieved 2019/10/14 04:00 UTC (18 minutes ago):

LETO 140400Z 04003KT 020V110 CAVOK 15/13 Q1011 NOSIG

Closest aviation forecast (TAF) to Aeródrome de Arcones

Closest forecast is Torrejón Airport, 39.3 nm (72.8 km) SSE. Retrieved 2019-10-14 00:27 UTC (4 hours ago):

TAF LETO 132300Z 1400/1424 VRB05KT CAVOK TX21/1412Z TN09/1424Z BECMG 1407/1409 22015G25KT PROB40 TEMPO 1408/1421 22015G38KT PROB40 TEMPO 1407/1421 RA SHRA SCT040TCU BECMG 1419/1421 26008KT